Time;durP1;ratioP1;P1;durP2;ratioP2;P2;SDS_P1;SDS_P2;PMS_P1;PMS_P2;Temp;Humidity;BMP_temperature;BMP_pressure;BME280_temperature;BME280_humidity;BME280_pressure;Samples;Min_cycle;Max_cycle;Signal;HPM_P1;HPM_P2
2023/05/26 00:00:12;;;;;;;0.32;0.32;;;14.60;78.20;;;;;;5129008;27;20019;-80
2023/05/26 00:02:39;;;;;;;0.20;0.20;;;14.50;78.80;;;;;;5123538;27;20036;-80
2023/05/26 00:05:06;;;;;;;0.13;0.13;;;14.50;78.70;;;;;;5129151;27;20046;-80
2023/05/26 00:07:33;;;;;;;0.15;0.15;;;14.50;78.90;;;;;;5129325;27;20122;-80
2023/05/26 00:09:59;;;;;;;0.10;0.10;;;14.60;78.70;;;;;;5129100;27;20049;-80
2023/05/26 00:12:25;;;;;;;2.40;0.67;;;14.40;79.20;;;;;;5129708;27;20063;-79
2023/05/26 00:14:50;;;;;;;0.30;0.30;;;14.30;79.70;;;;;;5128694;27;20039;-80
2023/05/26 00:17:17;;;;;;;1.17;0.38;;;14.30;79.50;;;;;;5126920;27;20023;-79
2023/05/26 00:19:43;;;;;;;0.50;0.50;;;14.10;80.50;;;;;;5128887;27;20019;-79
2023/05/26 00:22:10;;;;;;;0.50;0.50;;;14.20;80.30;;;;;;5129436;27;20027;-79
2023/05/26 00:24:36;;;;;;;0.52;0.52;;;14.30;79.90;;;;;;5128816;27;20019;-80
2023/05/26 00:27:02;;;;;;;0.50;0.50;;;14.30;79.90;;;;;;5123024;27;20027;-80
2023/05/26 00:29:28;;;;;;;0.23;0.23;;;14.30;79.90;;;;;;5122849;27;20031;-80
2023/05/26 00:31:53;;;;;;;0.20;0.20;;;14.20;80.50;;;;;;5128084;27;20023;-80
2023/05/26 00:34:19;;;;;;;1.87;1.70;;;14.20;80.50;;;;;;5126853;27;20035;-79
2023/05/26 00:36:46;;;;;;;1.07;0.73;;;14.20;80.60;;;;;;5127767;27;20026;-79
2023/05/26 00:39:12;;;;;;;1.33;0.55;;;14.10;81.00;;;;;;5128172;27;20512;-78
2023/05/26 00:41:37;;;;;;;0.35;0.35;;;14.10;81.40;;;;;;5128592;27;20034;-78
2023/05/26 00:44:03;;;;;;;0.50;0.50;;;14.10;81.40;;;;;;5128188;27;20019;-79
2023/05/26 00:46:30;;;;;;;0.95;0.95;;;14.10;81.10;;;;;;5128026;27;20027;-79
2023/05/26 00:48:55;;;;;;;0.40;0.40;;;14.00;81.80;;;;;;5127149;27;20012;-79
2023/05/26 00:51:22;;;;;;;0.80;0.55;;;14.00;82.00;;;;;;5127515;27;20042;-79
2023/05/26 00:53:48;;;;;;;1.00;1.00;;;13.90;82.10;;;;;;5126238;27;20066;-79
2023/05/26 00:56:18;;;;;;;0.57;0.57;;;13.90;82.70;;;;;;5127543;27;20100;-79
2023/05/26 00:58:44;;;;;;;0.43;0.43;;;13.80;83.30;;;;;;5124901;27;20448;-78
2023/05/26 01:01:10;;;;;;;0.35;0.35;;;13.70;83.40;;;;;;5126404;27;20131;-79
2023/05/26 01:03:38;;;;;;;0.60;0.60;;;13.70;83.60;;;;;;5127494;27;20080;-78
2023/05/26 01:06:04;;;;;;;0.85;0.43;;;13.60;84.00;;;;;;5127135;27;20023;-78
2023/05/26 01:08:30;;;;;;;0.20;0.20;;;13.70;83.80;;;;;;5125902;27;20031;-79
2023/05/26 01:11:03;;;;;;;0.10;0.10;;;13.60;84.20;;;;;;5127097;27;20027;-78
2023/05/26 01:13:40;;;;;;;0.40;0.40;;;13.50;84.40;;;;;;5125871;27;20015;-78
2023/05/26 01:16:10;;;;;;;3.33;1.95;;;13.50;84.50;;;;;;5127031;27;20023;-78
2023/05/26 01:18:47;;;;;;;0.63;0.63;;;13.50;84.60;;;;;;5125314;27;20027;-78
2023/05/26 01:21:14;;;;;;;0.20;0.20;;;13.60;84.20;;;;;;5125659;27;20032;-78
2023/05/26 01:23:56;;;;;;;0.30;0.30;;;13.60;84.30;;;;;;5126605;27;20037;-78
2023/05/26 01:26:45;;;;;;;0.20;0.20;;;13.50;84.70;;;;;;5116386;27;20198;-79
2023/05/26 01:29:15;;;;;;;1.05;1.00;;;13.50;85.00;;;;;;5124767;27;20030;-80
2023/05/26 01:31:41;;;;;;;0.10;0.10;;;13.50;85.30;;;;;;5126870;27;20877;-80
2023/05/26 01:34:07;;;;;;;1.97;1.27;;;13.40;85.60;;;;;;5127038;27;20643;-80
2023/05/26 01:36:33;;;;;;;0.40;0.40;;;13.40;85.70;;;;;;5126176;27;20045;-80
2023/05/26 01:38:59;;;;;;;1.93;1.27;;;13.40;85.60;;;;;;5123207;27;20019;-80
2023/05/26 01:41:50;;;;;;;0.50;0.50;;;13.40;85.40;;;;;;5120335;27;20553;-80
2023/05/26 01:44:45;;;;;;;0.25;0.25;;;13.50;85.30;;;;;;5123462;27;20073;-80
2023/05/26 01:47:13;;;;;;;0.30;0.30;;;13.40;85.60;;;;;;5122286;27;20311;-79
2023/05/26 01:49:42;;;;;;;0.17;0.17;;;13.40;85.60;;;;;;5127160;27;20406;-79
2023/05/26 01:52:12;;;;;;;1.75;1.33;;;13.50;85.50;;;;;;5125443;27;20782;-78
2023/05/26 01:55:01;;;;;;;0.30;0.30;;;13.50;85.50;;;;;;5126366;27;20039;-79
2023/05/26 01:57:28;;;;;;;0.57;0.57;;;13.30;86.20;;;;;;5125050;28;20056;-79
2023/05/26 01:59:55;;;;;;;0.32;0.32;;;13.40;85.70;;;;;;5126284;28;20062;-78
2023/05/26 02:02:21;;;;;;;0.70;0.70;;;13.40;86.10;;;;;;5126398;27;20084;-78
2023/05/26 02:04:46;;;;;;;0.47;0.47;;;13.30;86.50;;;;;;5125390;28;20031;-79
2023/05/26 02:07:12;;;;;;;0.43;0.43;;;13.40;86.20;;;;;;5125070;28;20434;-79
2023/05/26 02:09:38;;;;;;;0.28;0.28;;;13.40;86.40;;;;;;5126143;27;20027;-78
2023/05/26 02:12:06;;;;;;;0.80;0.52;;;13.40;86.50;;;;;;5126753;28;20027;-78
2023/05/26 02:14:31;;;;;;;0.32;0.32;;;13.40;86.30;;;;;;5125382;27;20023;-78
2023/05/26 02:16:57;;;;;;;1.45;1.00;;;13.30;86.50;;;;;;5130836;27;20028;-78
2023/05/26 02:19:25;;;;;;;0.60;0.60;;;13.30;86.80;;;;;;5124514;28;20023;-78
2023/05/26 02:21:50;;;;;;;0.68;0.68;;;13.40;86.60;;;;;;5125607;27;20072;-78
2023/05/26 02:24:16;;;;;;;0.35;0.35;;;13.30;86.70;;;;;;5126278;27;20062;-78
2023/05/26 02:26:42;;;;;;;0.20;0.20;;;13.40;86.70;;;;;;5126737;27;20064;-78
2023/05/26 02:29:07;;;;;;;0.40;0.40;;;13.30;86.70;;;;;;5115300;28;20027;-79
2023/05/26 02:31:34;;;;;;;0.35;0.35;;;13.20;87.40;;;;;;5125782;28;20035;-79
2023/05/26 02:34:01;;;;;;;0.63;0.63;;;13.10;87.90;;;;;;5124815;28;20893;-79
2023/05/26 02:36:27;;;;;;;0.10;0.10;;;13.10;87.80;;;;;;5126370;27;20709;-79
2023/05/26 02:38:52;;;;;;;1.15;0.88;;;13.10;87.80;;;;;;5128758;27;20558;-78
2023/05/26 02:41:18;;;;;;;0.32;0.32;;;13.00;88.20;;;;;;5122585;27;20816;-79
2023/05/26 02:43:44;;;;;;;0.40;0.40;;;13.10;87.90;;;;;;5129949;27;20054;-79
2023/05/26 02:46:09;;;;;;;0.10;0.10;;;13.10;88.30;;;;;;5129170;27;20104;-78
2023/05/26 02:48:35;;;;;;;0.40;0.27;;;13.00;88.60;;;;;;5129942;27;20803;-78
2023/05/26 02:51:01;;;;;;;0.87;0.87;;;13.00;88.30;;;;;;5128130;27;20023;-78
2023/05/26 02:53:27;;;;;;;2.15;0.65;;;13.00;88.50;;;;;;5129368;27;20212;-78
2023/05/26 02:55:52;;;;;;;0.20;0.20;;;13.00;89.00;;;;;;5131053;27;20042;-78
2023/05/26 02:58:19;;;;;;;0.77;0.77;;;12.90;89.10;;;;;;5129052;27;20029;-78
2023/05/26 03:00:45;;;;;;;0.30;0.30;;;12.90;89.10;;;;;;5129428;27;20028;-79
2023/05/26 03:03:11;;;;;;;1.38;1.27;;;12.90;89.10;;;;;;5125058;27;20023;-78
2023/05/26 03:05:37;;;;;;;0.70;0.70;;;13.00;88.80;;;;;;5128937;27;20030;-79
2023/05/26 03:08:03;;;;;;;0.20;0.20;;;12.90;88.90;;;;;;5129011;27;20063;-79
2023/05/26 03:10:29;;;;;;;1.30;1.00;;;13.00;89.00;;;;;;5127783;27;20079;-79
2023/05/26 03:12:55;;;;;;;0.27;0.27;;;12.90;89.20;;;;;;5128354;27;20606;-79
2023/05/26 03:15:22;;;;;;;0.38;0.38;;;12.80;89.70;;;;;;5129500;27;20289;-79
2023/05/26 03:17:47;;;;;;;0.35;0.35;;;13.00;88.80;;;;;;5127963;27;20034;-79
2023/05/26 03:20:13;;;;;;;0.40;0.40;;;12.90;89.40;;;;;;5129366;27;20097;-79
2023/05/26 03:22:40;;;;;;;0.17;0.17;;;12.90;89.00;;;;;;5129841;27;20027;-77
2023/05/26 03:25:06;;;;;;;0.25;0.25;;;12.90;89.40;;;;;;5129238;27;20045;-78
2023/05/26 03:27:31;;;;;;;0.60;0.60;;;12.80;89.40;;;;;;5117328;27;20039;-79
2023/05/26 03:29:57;;;;;;;0.10;0.10;;;12.70;90.00;;;;;;5120421;27;20034;-79
2023/05/26 03:32:23;;;;;;;0.22;0.22;;;12.70;90.00;;;;;;5129463;27;20581;-78
2023/05/26 03:34:49;;;;;;;1.45;0.80;;;12.80;89.80;;;;;;5128356;27;20054;-78
2023/05/26 03:37:15;;;;;;;6.60;1.37;;;12.80;89.80;;;;;;5129576;27;20023;-79
2023/05/26 03:39:41;;;;;;;0.85;0.85;;;12.90;89.20;;;;;;5128043;27;20016;-79
2023/05/26 03:42:07;;;;;;;0.93;0.93;;;12.80;89.80;;;;;;5129462;27;20030;-79
2023/05/26 03:44:32;;;;;;;0.10;0.10;;;12.80;89.80;;;;;;5128105;27;20138;-79
2023/05/26 03:46:58;;;;;;;0.10;0.10;;;12.90;89.50;;;;;;5123230;27;20094;-76
2023/05/26 03:49:24;;;;;;;0.17;0.17;;;12.80;89.50;;;;;;5128085;27;20039;-77
2023/05/26 03:51:50;;;;;;;0.45;0.45;;;12.70;89.80;;;;;;5129240;27;20061;-76
2023/05/26 03:54:15;;;;;;;0.50;0.50;;;12.70;90.10;;;;;;5126457;27;20047;-76
2023/05/26 03:56:41;;;;;;;0.10;0.10;;;12.60;90.20;;;;;;5128966;27;20037;-77
2023/05/26 03:59:07;;;;;;;0.10;0.10;;;12.60;90.40;;;;;;5128771;27;20030;-77
2023/05/26 04:01:33;;;;;;;0.25;0.25;;;12.50;90.40;;;;;;5124705;27;20031;-77
2023/05/26 04:03:58;;;;;;;1.47;0.87;;;12.60;90.40;;;;;;5127136;27;20051;-77
2023/05/26 04:06:24;;;;;;;0.82;0.82;;;12.60;90.40;;;;;;5128979;27;20027;-78
2023/05/26 04:08:50;;;;;;;0.20;0.20;;;12.60;90.40;;;;;;5127865;27;20037;-78
2023/05/26 04:11:17;;;;;;;0.83;0.83;;;12.50;90.60;;;;;;5128938;27;20031;-78
2023/05/26 04:13:42;;;;;;;;;;;12.50;90.60;;;;;;5128398;27;20039;-77
2023/05/26 04:16:08;;;;;;;0.50;0.50;;;12.50;90.60;;;;;;5127386;27;19969;-78
2023/05/26 04:18:36;;;;;;;1.60;1.50;;;12.60;90.30;;;;;;5129103;27;20044;-78
2023/05/26 04:21:02;;;;;;;0.90;0.90;;;12.70;90.30;;;;;;5128584;27;20063;-78
2023/05/26 04:23:28;;;;;;;0.35;0.35;;;12.60;90.30;;;;;;5129712;27;20048;-79
2023/05/26 04:25:55;;;;;;;0.52;0.52;;;12.70;90.20;;;;;;5129393;27;20023;-78
2023/05/26 04:28:21;;;;;;;17.77;0.70;;;12.70;90.10;;;;;;5111664;27;20034;-79
2023/05/26 04:30:47;;;;;;;0.30;0.30;;;12.80;90.00;;;;;;5125660;27;20019;-81
2023/05/26 04:33:15;;;;;;;0.25;0.25;;;13.00;89.80;;;;;;5129002;27;20035;-81
2023/05/26 04:35:44;;;;;;;1.10;0.95;;;13.20;88.70;;;;;;5127174;27;20065;-76
2023/05/26 04:38:12;;;;;;;0.55;0.55;;;13.20;88.60;;;;;;5127611;27;20047;-79
2023/05/26 04:40:39;;;;;;;0.65;0.65;;;13.50;87.50;;;;;;5126891;27;20054;-78
2023/05/26 04:43:04;;;;;;;0.40;0.40;;;13.80;86.60;;;;;;5126846;27;20027;-77
2023/05/26 04:45:30;;;;;;;0.10;0.10;;;13.90;85.70;;;;;;5123213;27;20039;-77
2023/05/26 04:47:56;;;;;;;0.97;0.90;;;14.10;85.40;;;;;;5127997;27;20039;-78
2023/05/26 04:50:23;;;;;;;1.40;1.30;;;14.20;85.10;;;;;;5127490;27;20060;-78
2023/05/26 04:52:52;;;;;;;0.20;0.20;;;14.30;84.30;;;;;;5126735;27;20107;-78
2023/05/26 04:55:18;;;;;;;0.28;0.28;;;14.60;83.30;;;;;;5126154;27;20574;-78
2023/05/26 04:57:44;;;;;;;0.32;0.32;;;14.80;82.20;;;;;;5124782;27;20023;-78
2023/05/26 05:00:12;;;;;;;1.60;0.87;;;14.90;82.10;;;;;;5125018;27;20038;-78
2023/05/26 05:02:37;;;;;;;0.10;0.10;;;15.10;81.40;;;;;;5124525;27;20700;-79
2023/05/26 05:05:03;;;;;;;0.40;0.40;;;15.50;80.50;;;;;;5127499;27;20137;-78
2023/05/26 05:07:29;;;;;;;0.90;0.90;;;15.70;79.30;;;;;;5124766;27;20036;-78
2023/05/26 05:09:54;;;;;;;0.73;0.70;;;15.70;78.50;;;;;;5120737;27;20031;-78
2023/05/26 05:12:20;;;;;;;0.57;0.57;;;16.00;78.50;;;;;;5120736;27;20027;-78
2023/05/26 05:14:46;;;;;;;0.40;0.40;;;16.20;78.10;;;;;;5120625;27;20103;-77
2023/05/26 05:17:12;;;;;;;0.57;0.57;;;16.50;77.00;;;;;;5126585;27;20273;-77
2023/05/26 05:19:38;;;;;;;0.10;0.10;;;16.70;76.00;;;;;;5122229;27;20018;-78
2023/05/26 05:22:03;;;;;;;1.23;1.13;;;16.80;75.10;;;;;;5117453;27;20434;-77
2023/05/26 05:24:29;;;;;;;0.57;0.57;;;17.00;74.60;;;;;;5126926;27;20770;-77
2023/05/26 05:26:55;;;;;;;0.77;0.57;;;17.30;73.50;;;;;;5118978;27;20035;-77
2023/05/26 05:29:20;;;;;;;0.10;0.10;;;17.60;72.60;;;;;;5117069;27;20027;-77
2023/05/26 05:31:46;;;;;;;0.93;0.93;;;17.90;72.90;;;;;;5116902;27;20023;-78
2023/05/26 05:34:12;;;;;;;0.43;0.43;;;17.80;71.80;;;;;;5127463;27;20031;-77
2023/05/26 05:36:37;;;;;;;0.87;0.87;;;18.10;71.20;;;;;;5126079;27;20118;-79
2023/05/26 05:39:03;;;;;;;0.73;0.73;;;18.10;70.00;;;;;;5115080;27;20024;-78
2023/05/26 05:41:29;;;;;;;0.00;0.00;;;18.40;70.90;;;;;;5117770;27;20016;-76
2023/05/26 05:43:56;;;;;;;1.10;1.10;;;18.60;69.20;;;;;;5127817;27;20026;-77
2023/05/26 05:46:24;;;;;;;0.30;0.30;;;18.60;68.40;;;;;;5127516;27;20031;-78
2023/05/26 05:48:49;;;;;;;0.20;0.20;;;18.80;67.40;;;;;;5122586;27;20027;-77
2023/05/26 05:51:15;;;;;;;0.97;0.77;;;19.40;67.40;;;;;;5125425;27;20027;-75
2023/05/26 05:53:41;;;;;;;2.33;1.20;;;19.50;66.30;;;;;;5123825;27;20678;-76
2023/05/26 05:56:06;;;;;;;0.00;0.00;;;19.50;66.00;;;;;;5127551;27;20099;-75
2023/05/26 05:58:32;;;;;;;0.10;0.10;;;19.60;66.00;;;;;;5127659;27;20096;-76
2023/05/26 06:00:58;;;;;;;0.30;0.30;;;19.90;65.30;;;;;;5123922;27;20052;-76
2023/05/26 06:03:24;;;;;;;0.23;0.23;;;19.90;64.90;;;;;;5127270;27;20529;-76
2023/05/26 06:05:50;;;;;;;0.10;0.10;;;20.00;65.20;;;;;;5124658;27;20084;-77
2023/05/26 06:08:16;;;;;;;0.87;0.87;;;20.20;63.70;;;;;;5126980;27;20043;-77
2023/05/26 06:10:42;;;;;;;0.53;0.53;;;20.50;64.40;;;;;;5121381;27;20042;-76
2023/05/26 06:13:08;;;;;;;0.03;0.03;;;20.70;62.20;;;;;;5131214;27;20052;-77
2023/05/26 06:15:34;;;;;;;0.00;0.00;;;20.70;62.40;;;;;;5127192;27;20027;-75
2023/05/26 06:17:59;;;;;;;1.70;0.20;;;21.10;61.10;;;;;;5117765;27;20035;-77
2023/05/26 06:20:25;;;;;;;5.53;2.20;;;21.50;60.00;;;;;;5131421;27;20079;-77
2023/05/26 06:22:51;;;;;;;6.80;1.17;;;21.60;60.10;;;;;;5131597;27;20095;-77
2023/05/26 06:25:16;;;;;;;0.20;0.20;;;21.50;60.10;;;;;;5125168;27;20499;-76
2023/05/26 06:27:42;;;;;;;0.50;0.40;;;21.50;58.90;;;;;;5128474;27;20034;-75
2023/05/26 06:30:08;;;;;;;0.50;0.50;;;21.60;59.10;;;;;;5120408;27;20102;-77
2023/05/26 06:32:34;;;;;;;0.28;0.28;;;21.90;59.60;;;;;;5130663;27;20031;-76
2023/05/26 06:34:59;;;;;;;0.20;0.20;;;22.40;58.20;;;;;;5129673;27;20058;-76
2023/05/26 06:37:25;;;;;;;0.00;0.00;;;22.50;57.20;;;;;;5130076;27;20092;-77
2023/05/26 06:39:51;;;;;;;0.20;0.20;;;22.40;56.90;;;;;;5131131;27;20612;-76
2023/05/26 06:42:16;;;;;;;0.47;0.47;;;22.60;58.20;;;;;;5130447;27;20055;-76
2023/05/26 06:44:42;;;;;;;0.73;0.63;;;22.70;56.30;;;;;;5129280;27;20049;-77
2023/05/26 06:47:09;;;;;;;1.27;0.83;;;23.20;56.90;;;;;;5129443;27;20130;-77
2023/05/26 06:49:35;;;;;;;0.20;0.20;;;22.60;56.80;;;;;;5130563;27;20118;-77
2023/05/26 06:52:00;;;;;;;0.60;0.60;;;23.30;56.60;;;;;;5130359;27;20130;-77
2023/05/26 06:54:26;;;;;;;0.00;0.00;;;23.50;54.90;;;;;;5129927;27;20541;-77
2023/05/26 06:56:52;;;;;;;0.00;0.00;;;23.80;54.40;;;;;;5130226;27;20046;-77
2023/05/26 06:59:18;;;;;;;0.28;0.28;;;23.90;53.60;;;;;;5126541;27;20634;-77
2023/05/26 07:01:43;;;;;;;0.10;0.10;;;24.80;53.60;;;;;;5124498;27;20027;-77
2023/05/26 07:04:09;;;;;;;0.10;0.10;;;25.00;52.10;;;;;;5128632;27;20046;-77
2023/05/26 07:06:35;;;;;;;0.55;0.43;;;24.40;52.40;;;;;;5128803;27;20035;-77
2023/05/26 07:09:01;;;;;;;0.60;0.47;;;24.60;51.80;;;;;;5129925;27;20042;-76
2023/05/26 07:11:27;;;;;;;1.13;0.60;;;24.80;52.40;;;;;;5130233;27;20131;-77
2023/05/26 07:13:53;;;;;;;0.03;0.03;;;25.00;51.50;;;;;;5128945;27;20079;-77
2023/05/26 07:16:18;;;;;;;0.17;0.17;;;25.00;50.80;;;;;;5129709;27;20031;-77
2023/05/26 07:18:44;;;;;;;0.13;0.13;;;26.20;51.30;;;;;;5129919;27;20031;-77
2023/05/26 07:21:10;;;;;;;4.07;0.90;;;26.10;50.80;;;;;;5128617;27;20023;-77
2023/05/26 07:23:35;;;;;;;0.00;0.00;;;26.60;49.70;;;;;;5129267;27;20102;-77
2023/05/26 07:26:01;;;;;;;0.13;0.13;;;27.70;48.70;;;;;;5128896;27;20126;-77
2023/05/26 07:28:27;;;;;;;0.35;0.35;;;26.70;46.80;;;;;;5129746;27;20031;-78
2023/05/26 07:30:52;;;;;;;0.93;0.73;;;27.50;48.80;;;;;;5130394;27;20664;-78
2023/05/26 07:33:18;;;;;;;0.00;0.00;;;27.60;47.10;;;;;;5131545;27;20031;-78
2023/05/26 07:35:44;;;;;;;0.03;0.03;;;27.70;47.00;;;;;;5129396;27;20065;-77
2023/05/26 07:38:09;;;;;;;0.32;0.30;;;28.30;48.00;;;;;;5128968;27;20053;-78
2023/05/26 07:40:35;;;;;;;0.00;0.00;;;27.80;46.80;;;;;;5128468;27;20029;-77
2023/05/26 07:43:01;;;;;;;;;;;28.40;46.70;;;;;;5130668;27;20058;-78
2023/05/26 07:45:27;;;;;;;0.20;0.20;;;27.70;47.80;;;;;;5129955;27;19950;-77
2023/05/26 07:47:52;;;;;;;0.22;0.22;;;28.20;46.40;;;;;;5129554;27;20019;-78
2023/05/26 07:50:18;;;;;;;0.65;0.65;;;27.80;47.20;;;;;;5129643;27;20031;-78
2023/05/26 07:52:44;;;;;;;0.22;0.22;;;28.00;47.40;;;;;;5123947;27;21217;-77
2023/05/26 07:55:09;;;;;;;0.30;0.30;;;27.90;46.60;;;;;;5129049;27;20054;-78
2023/05/26 07:57:35;;;;;;;0.45;0.38;;;28.40;47.50;;;;;;5129671;27;20023;-77
2023/05/26 08:00:01;;;;;;;0.00;0.00;;;28.60;47.00;;;;;;5129502;27;20048;-78
2023/05/26 08:02:27;;;;;;;;;;;29.10;46.60;;;;;;5124954;27;20035;-77
2023/05/26 08:04:52;;;;;;;0.25;0.25;;;29.40;45.70;;;;;;5127519;27;19914;-78
2023/05/26 08:07:18;;;;;;;;;;;29.90;45.70;;;;;;5129421;27;20540;-78
2023/05/26 08:09:44;;;;;;;0.17;0.17;;;30.50;45.90;;;;;;5128436;27;19903;-78
2023/05/26 08:12:09;;;;;;;;;;;30.20;44.20;;;;;;5128058;27;20065;-77
2023/05/26 08:14:35;;;;;;;0.00;0.00;;;30.80;43.00;;;;;;5128658;27;19918;-78
2023/05/26 08:17:01;;;;;;;;;;;30.10;43.00;;;;;;5128119;27;20496;-78
2023/05/26 08:19:26;;;;;;;1.02;0.43;;;30.70;42.60;;;;;;5127639;27;19907;-77
2023/05/26 08:21:52;;;;;;;;;;;31.40;44.10;;;;;;5128699;27;20027;-78
2023/05/26 08:24:19;;;;;;;0.28;0.28;;;31.50;42.40;;;;;;5128342;27;20007;-78
2023/05/26 08:26:45;;;;;;;0.30;0.30;;;31.30;41.80;;;;;;5128714;27;20513;-78
2023/05/26 08:29:11;;;;;;;0.20;0.20;;;31.70;42.90;;;;;;5117695;27;20159;-77
2023/05/26 08:31:36;;;;;;;0.63;0.63;;;31.10;42.80;;;;;;5127256;27;20042;-78
2023/05/26 08:34:02;;;;;;;0.10;0.10;;;31.60;41.40;;;;;;5127218;27;20027;-78
2023/05/26 08:36:28;;;;;;;0.00;0.00;;;32.70;41.10;;;;;;5128780;27;20550;-78
2023/05/26 08:38:53;;;;;;;0.32;0.28;;;32.60;41.20;;;;;;5127880;27;20030;-78
2023/05/26 08:41:23;;;;;;;0.00;0.00;;;32.40;40.70;;;;;;5129576;27;20031;-79
2023/05/26 08:43:55;;;;;;;0.50;0.50;;;32.70;41.80;;;;;;5127998;27;20039;-78
2023/05/26 08:46:22;;;;;;;0.00;0.00;;;32.80;40.90;;;;;;5129741;27;20867;-79
2023/05/26 08:48:50;;;;;;;0.00;0.00;;;34.60;41.10;;;;;;5122601;27;20027;-78
2023/05/26 08:51:15;;;;;;;0.22;0.22;;;35.40;39.00;;;;;;5128619;27;20117;-78
2023/05/26 08:53:41;;;;;;;3.00;0.70;;;34.20;39.30;;;;;;5128178;27;20154;-79
2023/05/26 08:56:08;;;;;;;0.60;0.60;;;34.00;40.00;;;;;;5128833;27;20035;-78
2023/05/26 08:58:35;;;;;;;0.10;0.10;;;34.70;39.20;;;;;;5128295;27;20038;-78
2023/05/26 09:01:01;;;;;;;0.00;0.00;;;35.30;38.40;;;;;;5127156;27;20031;-78
2023/05/26 09:03:28;;;;;;;0.15;0.15;;;35.50;37.50;;;;;;5123978;27;20023;-78
2023/05/26 09:05:54;;;;;;;0.20;0.20;;;34.40;40.50;;;;;;5128245;27;20500;-78
2023/05/26 09:08:20;;;;;;;0.00;0.00;;;35.10;40.20;;;;;;5126687;27;20023;-78
2023/05/26 09:10:46;;;;;;;0.65;0.52;;;35.60;39.40;;;;;;5123992;27;20027;-79
2023/05/26 09:13:14;;;;;;;0.22;0.22;;;35.70;37.00;;;;;;5126489;27;20546;-79
2023/05/26 09:15:41;;;;;;;0.20;0.20;;;36.80;36.70;;;;;;5126730;27;21030;-79
2023/05/26 09:18:09;;;;;;;0.65;0.45;;;36.40;37.40;;;;;;5126512;27;20026;-79
2023/05/26 09:20:43;;;;;;;0.00;0.00;;;36.80;38.20;;;;;;5127733;27;20098;-79
2023/05/26 09:23:10;;;;;;;0.00;0.00;;;36.70;38.60;;;;;;5127816;27;20098;-79
2023/05/26 09:25:42;;;;;;;0.00;0.00;;;37.10;36.70;;;;;;5125880;27;20031;-79
2023/05/26 09:28:14;;;;;;;0.30;0.30;;;36.70;37.60;;;;;;5124765;27;20052;-79
2023/05/26 09:30:43;;;;;;;0.00;0.00;;;36.20;36.80;;;;;;5127223;27;20076;-78
2023/05/26 09:33:14;;;;;;;0.22;0.22;;;35.80;37.30;;;;;;5127541;27;20106;-79
2023/05/26 09:35:42;;;;;;;0.00;0.00;;;36.90;35.40;;;;;;5125736;27;20027;-79
2023/05/26 09:38:09;;;;;;;0.00;0.00;;;36.70;35.90;;;;;;5127504;27;20027;-79
2023/05/26 09:40:46;;;;;;;0.10;0.10;;;38.10;35.80;;;;;;5127001;27;20092;-78
2023/05/26 09:43:12;;;;;;;0.20;0.20;;;38.20;34.70;;;;;;5127582;27;20029;-79
2023/05/26 09:45:39;;;;;;;0.00;0.00;;;38.20;35.60;;;;;;5127148;27;20030;-79
2023/05/26 09:48:06;;;;;;;0.00;0.00;;;36.90;35.80;;;;;;5125576;27;20521;-79
2023/05/26 09:50:34;;;;;;;0.00;0.00;;;37.70;34.70;;;;;;5126204;27;20063;-79
2023/05/26 09:53:02;;;;;;;0.10;0.10;;;38.40;35.80;;;;;;5127022;27;20031;-79
2023/05/26 09:55:31;;;;;;;0.10;0.10;;;38.20;35.10;;;;;;5126846;27;20088;-79
2023/05/26 09:58:04;;;;;;;0.30;0.30;;;37.80;33.30;;;;;;5128557;27;21981;-79
2023/05/26 10:00:35;;;;;;;0.10;0.10;;;36.70;34.80;;;;;;5117441;28;20123;-79
2023/05/26 10:03:04;;;;;;;0.08;0.08;;;37.90;35.60;;;;;;5125032;28;20031;-79
2023/05/26 10:05:33;;;;;;;0.00;0.00;;;37.40;34.00;;;;;;5127668;27;20023;-79
2023/05/26 10:08:00;;;;;;;1.65;0.65;;;36.80;35.80;;;;;;5127372;27;20066;-79
2023/05/26 10:10:28;;;;;;;1.20;1.10;;;37.40;35.20;;;;;;5125177;28;20047;-79
2023/05/26 10:12:54;;;;;;;0.00;0.00;;;37.30;34.80;;;;;;5125868;27;20036;-78
2023/05/26 10:15:21;;;;;;;0.00;0.00;;;37.20;36.10;;;;;;5127042;27;20030;-78
2023/05/26 10:17:47;;;;;;;0.00;0.00;;;36.80;34.10;;;;;;5127171;27;20468;-78
2023/05/26 10:20:13;;;;;;;;;;;37.70;33.60;;;;;;5127724;27;20536;-79
2023/05/26 10:22:58;;;;;;;0.00;0.00;;;38.10;34.50;;;;;;5127254;27;20368;-78
2023/05/26 10:26:00;;;;;;;0.30;0.30;;;38.40;35.10;;;;;;5127280;27;20053;-78
2023/05/26 10:28:51;;;;;;;0.17;0.17;;;37.70;32.60;;;;;;5118790;28;21007;-79
2023/05/26 10:31:36;;;;;;;0.05;0.05;;;37.10;32.30;;;;;;5125569;28;20617;-79
2023/05/26 10:34:34;;;;;;;0.88;0.85;;;36.70;33.30;;;;;;5125263;27;20461;-78
2023/05/26 10:37:01;;;;;;;0.17;0.17;;;37.00;35.00;;;;;;5125728;28;20035;-79
2023/05/26 10:39:27;;;;;;;0.15;0.15;;;35.00;34.70;;;;;;5125541;28;20027;-79
2023/05/26 10:41:53;;;;;;;0.60;0.60;;;33.30;37.20;;;;;;5126541;27;20035;-78
2023/05/26 10:44:37;;;;;;;;;;;32.50;39.20;;;;;;5126674;27;20035;-78
2023/05/26 10:47:04;;;;;;;0.00;0.00;;;30.60;38.10;;;;;;5125721;27;19934;-78
2023/05/26 10:49:35;;;;;;;0.10;0.10;;;30.40;41.50;;;;;;5126689;27;20030;-78
2023/05/26 10:52:13;;;;;;;0.40;0.38;;;30.40;44.30;;;;;;5121670;28;20035;-78
2023/05/26 10:54:40;;;;;;;0.05;0.05;;;30.40;46.20;;;;;;5121688;28;20043;-78
2023/05/26 10:57:26;;;;;;;0.20;0.20;;;30.50;47.10;;;;;;5127364;27;20031;-78
2023/05/26 10:59:53;;;;;;;0.00;0.00;;;30.00;45.00;;;;;;5123851;27;20508;-78
2023/05/26 11:02:21;;;;;;;0.05;0.05;;;29.20;45.10;;;;;;5126751;27;20027;-78
2023/05/26 11:04:49;;;;;;;0.95;0.95;;;29.10;45.70;;;;;;5130391;27;20102;-78
2023/05/26 11:07:21;;;;;;;0.00;0.00;;;28.70;46.10;;;;;;5126403;27;20530;-78
2023/05/26 11:09:57;;;;;;;0.40;0.40;;;28.30;51.60;;;;;;5121961;27;20022;-78
2023/05/26 11:12:22;;;;;;;1.45;0.80;;;28.90;48.30;;;;;;5129607;27;20095;-78
2023/05/26 11:14:48;;;;;;;2.63;0.75;;;28.70;44.50;;;;;;5129887;27;20039;-79
2023/05/26 11:17:18;;;;;;;0.77;0.77;;;28.30;43.60;;;;;;5130898;27;20030;-79
2023/05/26 11:19:54;;;;;;;0.22;0.22;;;28.20;44.30;;;;;;5129426;27;20027;-79
2023/05/26 11:22:21;;;;;;;0.45;0.45;;;27.80;43.40;;;;;;5130327;27;20017;-78
2023/05/26 11:24:49;;;;;;;0.10;0.10;;;28.20;43.10;;;;;;5129257;27;20043;-78
2023/05/26 11:27:15;;;;;;;0.65;0.65;;;28.20;46.40;;;;;;5120039;27;20035;-78
2023/05/26 11:29:41;;;;;;;0.00;0.00;;;28.00;48.40;;;;;;5130301;27;20027;-78
2023/05/26 11:32:06;;;;;;;0.30;0.30;;;27.80;54.00;;;;;;5129878;27;20026;-79
2023/05/26 11:34:32;;;;;;;0.07;0.07;;;27.80;55.70;;;;;;5128906;27;20601;-78
2023/05/26 11:36:58;;;;;;;0.10;0.10;;;27.70;54.60;;;;;;5128308;27;20652;-78
2023/05/26 11:39:24;;;;;;;0.30;0.30;;;27.90;53.90;;;;;;5128510;27;20313;-78
2023/05/26 11:41:50;;;;;;;1.38;0.80;;;27.90;50.10;;;;;;5129813;27;20034;-78
2023/05/26 11:44:15;;;;;;;0.30;0.30;;;27.60;51.10;;;;;;5129071;27;20518;-77
2023/05/26 11:46:43;;;;;;;0.38;0.38;;;27.40;49.40;;;;;;5129133;27;20700;-78
2023/05/26 11:49:16;;;;;;;0.93;0.25;;;27.70;51.10;;;;;;5129248;27;20027;-78
2023/05/26 11:51:47;;;;;;;0.00;0.00;;;27.80;51.10;;;;;;5128158;27;20034;-78
2023/05/26 11:54:13;;;;;;;0.30;0.30;;;27.70;50.10;;;;;;5129305;27;20043;-78
2023/05/26 11:56:39;;;;;;;0.00;0.00;;;26.80;52.00;;;;;;5123990;27;20023;-78
2023/05/26 11:59:05;;;;;;;0.10;0.10;;;27.00;50.50;;;;;;5129331;27;20060;-77
2023/05/26 12:01:31;;;;;;;0.57;0.57;;;27.20;52.40;;;;;;5121874;27;20032;-78
2023/05/26 12:04:01;;;;;;;0.10;0.10;;;27.40;55.60;;;;;;5129865;27;20027;-78
2023/05/26 12:06:29;;;;;;;0.15;0.15;;;27.30;53.70;;;;;;5128955;27;20126;-78
2023/05/26 12:09:00;;;;;;;0.13;0.13;;;27.30;53.30;;;;;;5123162;27;20030;-78
2023/05/26 12:11:28;;;;;;;0.00;0.00;;;27.10;53.30;;;;;;5125502;27;20088;-78
2023/05/26 12:14:14;;;;;;;0.30;0.30;;;27.30;50.60;;;;;;5128359;27;20027;-78
2023/05/26 12:16:46;;;;;;;0.00;0.00;;;26.60;49.60;;;;;;5118389;27;20022;-78
2023/05/26 12:19:13;;;;;;;0.38;0.38;;;26.80;52.10;;;;;;5128100;27;20024;-78
2023/05/26 12:21:39;;;;;;;0.38;0.25;;;27.10;50.00;;;;;;5129855;27;20023;-78
2023/05/26 12:24:05;;;;;;;0.28;0.28;;;27.30;53.70;;;;;;5129160;27;20031;-78
2023/05/26 12:26:30;;;;;;;0.00;0.00;;;27.50;54.20;;;;;;5127785;27;20113;-78
2023/05/26 12:29:13;;;;;;;0.30;0.30;;;27.10;54.20;;;;;;5128792;27;20403;-78
2023/05/26 12:31:50;;;;;;;0.82;0.70;;;27.20;54.90;;;;;;5118782;27;20284;-78
2023/05/26 12:34:20;;;;;;;0.00;0.00;;;27.00;56.20;;;;;;5126928;27;20047;-78
2023/05/26 12:36:46;;;;;;;0.08;0.08;;;26.90;48.30;;;;;;5128846;27;20031;-78
2023/05/26 12:39:14;;;;;;;0.65;0.65;;;27.10;47.80;;;;;;5126780;27;20079;-78
2023/05/26 12:41:40;;;;;;;0.25;0.25;;;27.00;48.90;;;;;;5128465;27;20055;-78
2023/05/26 12:44:07;;;;;;;0.00;0.00;;;27.10;48.00;;;;;;5126733;27;20076;-78
2023/05/26 12:46:33;;;;;;;0.10;0.10;;;27.30;46.70;;;;;;5127837;27;20106;-78
2023/05/26 12:48:59;;;;;;;0.00;0.00;;;26.90;47.70;;;;;;5127907;27;20130;-78